createdAt,value
2018-04-12T00:00:37.362Z,12.40
2018-04-12T00:03:04.899Z,12.40
2018-04-12T00:05:32.428Z,12.40
2018-04-12T00:08:00.733Z,12.30
2018-04-12T00:10:28.255Z,12.30
2018-04-12T00:12:55.786Z,12.30
2018-04-12T00:15:23.311Z,12.30
2018-04-12T00:17:51.622Z,12.20
2018-04-12T00:20:19.138Z,12.20
2018-04-12T00:22:46.677Z,12.20
2018-04-12T00:25:14.288Z,12.20
2018-04-12T00:27:41.824Z,12.20
2018-04-12T00:30:09.378Z,12.20
2018-04-12T00:32:36.976Z,12.20
2018-04-12T00:35:05.446Z,12.10
2018-04-12T00:37:33.004Z,12.10
2018-04-12T00:40:00.535Z,12.10
2018-04-12T00:42:28.056Z,12.10
2018-04-12T00:44:55.603Z,12.10
2018-04-12T00:47:24.038Z,12.10
2018-04-12T00:49:51.575Z,12.10
2018-04-12T00:52:19.098Z,12.00
2018-04-12T00:54:46.659Z,12.00
2018-04-12T00:57:14.272Z,12.00
2018-04-12T00:59:41.889Z,12.00
2018-04-12T01:02:09.429Z,11.90
2018-04-12T01:04:36.990Z,11.90
2018-04-12T01:07:04.611Z,11.80
2018-04-12T01:09:32.923Z,11.90
2018-04-12T01:12:00.449Z,11.80
2018-04-12T01:14:27.989Z,11.80
2018-04-12T01:16:55.522Z,11.80
2018-04-12T01:19:23.067Z,11.80
2018-04-12T01:21:50.642Z,11.80
2018-04-12T01:24:18.175Z,11.80
2018-04-12T01:26:45.706Z,11.80
2018-04-12T01:29:13.243Z,11.80
2018-04-12T01:31:40.772Z,11.70
2018-04-12T01:34:09.086Z,11.70
2018-04-12T01:36:36.609Z,11.70
2018-04-12T01:39:04.137Z,11.70
2018-04-12T01:41:31.684Z,11.70
2018-04-12T01:43:59.203Z,11.70
2018-04-12T01:46:27.509Z,11.60
2018-04-12T01:48:55.063Z,11.60
2018-04-12T01:51:22.598Z,11.60
2018-04-12T01:53:50.131Z,11.60
2018-04-12T01:56:17.676Z,11.60
2018-04-12T01:58:45.194Z,11.60
2018-04-12T02:01:13.496Z,11.50
2018-04-12T02:03:41.043Z,11.50
2018-04-12T02:06:08.578Z,11.50
2018-04-12T02:08:36.102Z,11.40
2018-04-12T02:11:03.637Z,11.40
2018-04-12T02:13:31.943Z,11.40
2018-04-12T02:15:59.474Z,11.40
2018-04-12T02:18:26.993Z,11.40
2018-04-12T02:20:54.542Z,11.30
2018-04-12T02:23:22.071Z,11.30
2018-04-12T02:25:50.389Z,11.20
2018-04-12T02:28:17.910Z,11.20
2018-04-12T02:30:45.477Z,11.20
2018-04-12T02:33:13.002Z,11.20
2018-04-12T02:35:40.576Z,11.20
2018-04-12T02:38:09.428Z,11.20
2018-04-12T02:40:37.077Z,11.10
2018-04-12T02:43:04.606Z,11.20
2018-04-12T02:45:32.141Z,11.20
2018-04-12T02:47:59.664Z,11.10
2018-04-12T02:50:27.946Z,11.10
2018-04-12T02:52:55.507Z,11.10
2018-04-12T02:55:23.061Z,11.10
2018-04-12T02:57:50.591Z,11.10
2018-04-12T03:00:18.110Z,11.10
2018-04-12T03:02:46.514Z,11.00
2018-04-12T03:05:14.066Z,11.00
2018-04-12T03:07:41.640Z,11.00
2018-04-12T03:10:09.682Z,11.10
2018-04-12T03:12:37.235Z,11.10
2018-04-12T03:15:05.522Z,11.10
2018-04-12T03:17:33.930Z,11.10
2018-04-12T03:20:01.460Z,11.10
2018-04-12T03:22:29.017Z,11.00
2018-04-12T03:24:56.537Z,11.00
2018-04-12T03:27:24.107Z,11.00
2018-04-12T03:29:51.644Z,11.00
2018-04-12T03:32:19.182Z,11.00
2018-04-12T03:34:46.704Z,11.00
2018-04-12T03:37:14.256Z,11.00
2018-04-12T03:39:41.791Z,11.00
2018-04-12T03:42:10.274Z,11.00
2018-04-12T03:44:37.808Z,11.00
2018-04-12T03:47:05.346Z,10.90
2018-04-12T03:49:32.876Z,10.90
2018-04-12T03:52:00.431Z,10.90
2018-04-12T03:54:28.018Z,10.90
2018-04-12T03:56:55.658Z,10.80
2018-04-12T03:59:23.183Z,10.90
2018-04-12T04:01:50.742Z,10.80
2018-04-12T04:04:18.266Z,10.80
2018-04-12T04:06:45.884Z,10.80
2018-04-12T04:09:14.511Z,10.70
2018-04-12T04:11:42.044Z,10.70
2018-04-12T04:14:23.966Z,10.70
2018-04-12T04:17:04.180Z,10.70
2018-04-12T04:19:43.647Z,10.70
2018-04-12T04:22:12.064Z,10.60
2018-04-12T04:24:39.588Z,10.60
2018-04-12T04:27:07.115Z,10.60
2018-04-12T04:29:34.657Z,10.60
2018-04-12T04:32:02.178Z,10.60
2018-04-12T04:34:29.723Z,10.60
2018-04-12T04:36:57.363Z,10.60
2018-04-12T04:39:24.902Z,10.60
2018-04-12T04:41:53.195Z,10.70
2018-04-12T04:44:21.594Z,10.60
2018-04-12T04:46:49.111Z,10.60
2018-04-12T04:49:16.643Z,10.60
2018-04-12T04:51:44.930Z,10.70
2018-04-12T04:54:12.492Z,10.70
2018-04-12T04:56:40.031Z,10.70
2018-04-12T04:59:07.682Z,10.70
2018-04-12T05:01:35.198Z,10.70
2018-04-12T05:04:02.723Z,10.80
2018-04-12T05:06:31.034Z,10.80
2018-04-12T05:08:58.558Z,10.80
2018-04-12T05:11:26.107Z,10.90
2018-04-12T05:13:53.644Z,10.90
2018-04-12T05:16:21.193Z,10.90
2018-04-12T05:18:48.714Z,10.90
2018-04-12T05:21:17.007Z,11.00
2018-04-12T05:23:44.647Z,11.00
2018-04-12T05:26:13.320Z,11.10
2018-04-12T05:28:40.883Z,11.10
2018-04-12T05:31:08.463Z,11.20
2018-04-12T05:33:35.982Z,11.20
2018-04-12T05:36:03.519Z,11.20
2018-04-12T05:38:31.214Z,11.30
2018-04-12T05:40:59.520Z,11.40
2018-04-12T05:43:27.051Z,11.40
2018-04-12T05:45:54.588Z,11.40
2018-04-12T05:48:22.111Z,11.50
2018-04-12T05:50:50.432Z,11.50
2018-04-12T05:53:19.582Z,11.50
2018-04-12T05:55:47.130Z,11.60
2018-04-12T05:58:14.675Z,11.70
2018-04-12T06:00:42.230Z,11.70
2018-04-12T06:03:09.793Z,11.80
2018-04-12T06:05:37.339Z,11.80
2018-04-12T06:08:04.897Z,11.90
2018-04-12T06:10:33.226Z,12.00
2018-04-12T06:13:00.767Z,12.10
2018-04-12T06:15:28.407Z,12.10
2018-04-12T06:17:56.114Z,12.20
2018-04-12T06:20:23.702Z,12.20
2018-04-12T06:22:51.247Z,12.30
2018-04-12T06:25:18.914Z,12.40
2018-04-12T06:27:46.467Z,12.50
2018-04-12T06:30:14.799Z,12.60
2018-04-12T06:32:42.338Z,12.60
2018-04-12T06:35:09.913Z,12.70
2018-04-12T06:37:37.482Z,12.80
2018-04-12T06:40:05.002Z,12.80
2018-04-12T06:42:32.851Z,12.80
2018-04-12T06:45:00.490Z,12.90
2018-04-12T06:47:28.131Z,13.00
2018-04-12T06:49:55.655Z,13.00
2018-04-12T06:52:23.202Z,13.20
2018-04-12T06:54:50.821Z,13.30
2018-04-12T06:57:18.471Z,13.30
2018-04-12T06:59:46.248Z,13.40
2018-04-12T07:02:14.735Z,13.50
2018-04-12T07:04:42.274Z,13.50
2018-04-12T07:07:09.819Z,13.60
2018-04-12T07:09:37.347Z,13.60
2018-04-12T07:12:05.007Z,13.60
2018-04-12T07:14:32.523Z,13.70
2018-04-12T07:17:00.067Z,13.70
2018-04-12T07:19:27.591Z,13.80
2018-04-12T07:21:55.905Z,14.00
2018-04-12T07:24:23.428Z,13.90
2018-04-12T07:26:51.055Z,14.00
2018-04-12T07:29:18.618Z,14.20
2018-04-12T07:31:46.147Z,14.30
2018-04-12T07:34:13.702Z,14.40
2018-04-12T07:36:41.259Z,14.50
2018-04-12T07:39:08.827Z,14.60
2018-04-12T07:41:37.144Z,14.80
2018-04-12T07:44:04.710Z,14.80
2018-04-12T07:46:32.235Z,14.90
2018-04-12T07:48:59.826Z,15.10
2018-04-12T07:51:27.352Z,15.40
2018-04-12T07:53:54.902Z,15.40
2018-04-12T07:56:22.425Z,15.50
2018-04-12T07:58:49.989Z,15.50
2018-04-12T08:01:17.539Z,15.70
2018-04-12T08:03:45.176Z,15.90
2018-04-12T08:06:12.799Z,16.00
2018-04-12T08:08:40.351Z,16.10
2018-04-12T08:11:07.875Z,16.20
2018-04-12T08:13:36.186Z,16.40
2018-04-12T08:16:03.752Z,16.40
2018-04-12T08:18:31.289Z,16.60
2018-04-12T08:20:58.909Z,16.80
2018-04-12T08:23:26.558Z,16.90
2018-04-12T08:25:54.100Z,16.70
2018-04-12T08:28:21.651Z,16.70
2018-04-12T08:30:49.218Z,16.80
2018-04-12T08:33:17.846Z,16.60
2018-04-12T08:35:45.371Z,16.50
2018-04-12T08:38:13.073Z,16.50
2018-04-12T08:40:40.601Z,16.70
2018-04-12T08:43:08.413Z,16.90
2018-04-12T08:45:36.719Z,17.20
2018-04-12T08:48:04.250Z,17.10
2018-04-12T08:50:31.798Z,17.40
2018-04-12T08:52:59.322Z,17.60
2018-04-12T08:55:26.861Z,17.80
2018-04-12T08:57:54.398Z,17.80
2018-04-12T09:00:21.948Z,17.80
2018-04-12T09:02:49.481Z,17.90
2018-04-12T09:05:18.397Z,18.00
2018-04-12T09:07:45.911Z,18.00
2018-04-12T09:10:13.472Z,18.00
2018-04-12T09:12:40.999Z,18.10
2018-04-12T09:15:08.673Z,18.10
2018-04-12T09:17:36.192Z,18.20
2018-04-12T09:20:03.726Z,18.30
2018-04-12T09:22:31.266Z,18.40
2018-04-12T09:24:58.816Z,18.60
2018-04-12T09:27:26.334Z,18.70
2018-04-12T09:29:54.739Z,18.80
2018-04-12T09:32:22.274Z,18.90
2018-04-12T09:34:49.822Z,19.10
2018-04-12T09:37:17.360Z,19.40
2018-04-12T09:39:44.947Z,19.60
2018-04-12T09:42:12.483Z,19.90
2018-04-12T09:44:40.019Z,19.90
2018-04-12T09:49:39.548Z,19.80
2018-04-12T09:52:07.273Z,19.70
2018-04-12T09:54:35.255Z,19.80
2018-04-12T09:57:02.777Z,19.90
2018-04-12T09:59:30.411Z,20.10
2018-04-12T10:02:01.945Z,20.40
2018-04-12T10:04:29.483Z,20.50
2018-04-12T10:07:02.660Z,20.70
2018-04-12T10:09:30.185Z,20.70
2018-04-12T10:11:57.802Z,20.80
2018-04-12T10:14:26.167Z,20.90
2018-04-12T10:16:54.470Z,21.10
2018-04-12T10:19:22.007Z,21.10
2018-04-12T10:21:49.546Z,21.10
2018-04-12T10:24:17.062Z,21.00
2018-04-12T10:26:44.609Z,20.90
2018-04-12T10:29:12.915Z,21.20
2018-04-12T10:31:40.465Z,21.10
2018-04-12T10:34:08.008Z,21.20
2018-04-12T10:36:35.558Z,21.30
2018-04-12T10:39:03.097Z,21.20
2018-04-12T10:41:30.840Z,21.20
2018-04-12T10:43:58.352Z,21.20
2018-04-12T10:46:26.649Z,21.10
2018-04-12T10:48:54.170Z,21.10
2018-04-12T10:51:21.740Z,21.10
2018-04-12T10:53:49.260Z,21.10
2018-04-12T10:56:16.803Z,21.20
2018-04-12T10:58:44.327Z,21.10
2018-04-12T11:01:12.642Z,21.10
2018-04-12T11:03:40.218Z,21.10
2018-04-12T11:08:40.715Z,21.40
2018-04-12T11:11:08.511Z,21.50
2018-04-12T11:13:36.074Z,21.80
2018-04-12T11:16:03.741Z,22.10
2018-04-12T11:18:31.364Z,22.30
2018-04-12T11:20:58.833Z,22.50
2018-04-12T11:23:26.410Z,22.60
2018-04-12T11:25:54.048Z,22.80
2018-04-12T11:28:21.591Z,22.80
2018-04-12T11:30:50.619Z,22.70
2018-04-12T11:33:19.118Z,22.70
2018-04-12T11:35:46.662Z,22.70
2018-04-12T11:38:14.206Z,22.80
2018-04-12T11:40:41.772Z,22.80
2018-04-12T11:43:09.340Z,22.90
2018-04-12T11:45:36.931Z,23.10
2018-04-12T11:48:04.520Z,23.20
2018-04-12T11:50:32.823Z,23.20
2018-04-12T11:53:00.358Z,23.20
2018-04-12T11:55:28.006Z,23.10
2018-04-12T11:57:56.270Z,22.90
2018-04-12T12:00:23.824Z,22.90
2018-04-12T12:02:51.362Z,22.90
2018-04-12T12:05:18.946Z,23.10
2018-04-12T12:07:46.547Z,23.10
2018-04-12T12:10:14.086Z,23.00
2018-04-12T12:12:41.647Z,23.10
2018-04-12T12:15:09.180Z,23.20
2018-04-12T12:17:36.734Z,23.30
2018-04-12T12:20:04.320Z,23.30
2018-04-12T12:22:31.860Z,23.40
2018-04-12T12:24:59.431Z,23.20
2018-04-12T12:27:27.816Z,23.30
2018-04-12T12:29:55.346Z,23.20
2018-04-12T12:32:22.923Z,23.40
2018-04-12T12:34:50.467Z,23.50
2018-04-12T12:37:18.018Z,23.50
2018-04-12T12:39:45.674Z,23.60
2018-04-12T12:42:13.191Z,23.70
2018-04-12T12:44:40.751Z,23.80
2018-04-12T12:47:08.267Z,23.80
2018-04-12T12:49:35.814Z,23.80
2018-04-12T12:52:04.095Z,23.80
2018-04-12T12:54:31.634Z,23.80
2018-04-12T12:56:59.154Z,23.70
2018-04-12T12:59:27.494Z,23.90
2018-04-12T13:01:55.828Z,24.00
2018-04-12T13:04:26.367Z,24.00
2018-04-12T13:06:54.079Z,24.00
2018-04-12T13:09:22.446Z,24.40
2018-04-12T13:11:49.974Z,24.40
2018-04-12T13:14:17.527Z,24.80
2018-04-12T13:16:45.108Z,25.00
2018-04-12T13:19:13.457Z,24.90
2018-04-12T13:21:41.380Z,24.90
2018-04-12T13:24:08.995Z,24.80
2018-04-12T13:26:37.303Z,24.80
2018-04-12T13:29:05.033Z,24.70
2018-04-12T13:31:32.567Z,24.70
2018-04-12T13:34:00.122Z,24.80
2018-04-12T13:36:27.702Z,24.90
2018-04-12T13:38:55.242Z,24.90
2018-04-12T13:41:22.751Z,25.10
2018-04-12T13:43:50.299Z,25.20
2018-04-12T13:46:17.834Z,25.10
2018-04-12T13:48:46.173Z,25.50
2018-04-12T13:51:14.491Z,25.50
2018-04-12T13:53:42.019Z,25.50
2018-04-12T13:56:09.660Z,25.40
2018-04-12T13:58:37.179Z,25.40
2018-04-12T14:01:05.474Z,25.20
2018-04-12T14:03:32.987Z,25.20
2018-04-12T14:06:01.295Z,25.30
2018-04-12T14:08:28.834Z,25.30
2018-04-12T14:10:56.373Z,25.40
2018-04-12T14:13:23.910Z,25.30
2018-04-12T14:15:51.438Z,25.20
2018-04-12T14:18:18.959Z,25.20
2018-04-12T14:20:47.253Z,25.20
2018-04-12T14:23:14.771Z,25.10
2018-04-12T14:25:43.083Z,25.30
2018-04-12T14:28:10.604Z,25.20
2018-04-12T14:30:38.159Z,25.40
2018-04-12T14:33:05.683Z,25.40
2018-04-12T14:35:33.236Z,25.20
2018-04-12T14:38:00.827Z,25.00
2018-04-12T14:40:29.164Z,24.90
2018-04-12T14:42:56.695Z,24.80
2018-04-12T14:45:24.263Z,24.90
2018-04-12T14:47:51.847Z,24.90
2018-04-12T14:50:20.148Z,24.90
2018-04-12T14:52:47.705Z,24.90
2018-04-12T14:55:15.266Z,24.90
2018-04-12T14:57:42.885Z,25.10
2018-04-12T15:00:11.154Z,25.00
2018-04-12T15:02:38.692Z,24.90
2018-04-12T15:05:06.235Z,25.00
2018-04-12T15:07:33.774Z,25.10
2018-04-12T15:10:01.296Z,25.00
2018-04-12T15:12:30.626Z,25.10
2018-04-12T15:14:58.170Z,25.10
2018-04-12T15:17:25.730Z,25.40
2018-04-12T15:19:53.300Z,25.60
2018-04-12T15:22:21.608Z,25.50
2018-04-12T15:24:49.139Z,25.50
2018-04-12T15:27:19.217Z,25.40
2018-04-12T15:29:46.775Z,25.00
2018-04-12T15:32:15.280Z,24.70
2018-04-12T15:34:42.827Z,24.50
2018-04-12T15:37:10.517Z,24.20
2018-04-12T15:39:38.871Z,23.80
2018-04-12T15:42:06.406Z,23.80
2018-04-12T15:44:34.020Z,23.80
2018-04-12T15:47:01.615Z,23.80
2018-04-12T15:49:29.149Z,23.90
2018-04-12T15:51:56.701Z,23.90
2018-04-12T15:54:25.044Z,23.80
2018-04-12T15:56:52.583Z,23.80
2018-04-12T15:59:20.111Z,23.80
2018-04-12T16:01:47.775Z,23.90
2018-04-12T16:04:15.315Z,24.00
2018-04-12T16:06:43.744Z,24.70
2018-04-12T16:09:11.310Z,24.70
2018-04-12T16:11:38.857Z,24.90
2018-04-12T16:14:06.389Z,24.90
2018-04-12T16:16:33.956Z,24.70
2018-04-12T16:19:01.504Z,24.40
2018-04-12T16:21:29.052Z,24.20
2018-04-12T16:23:56.602Z,24.00
2018-04-12T16:26:24.900Z,24.00
2018-04-12T16:28:52.668Z,24.00
2018-04-12T16:31:20.243Z,23.80
2018-04-12T16:33:47.786Z,23.60
2018-04-12T16:36:15.311Z,23.30
2018-04-12T16:38:42.850Z,23.20
2018-04-12T16:41:10.374Z,23.00
2018-04-12T16:43:38.738Z,22.50
2018-04-12T16:46:06.402Z,22.50
2018-04-12T16:48:33.935Z,22.30
2018-04-12T16:51:01.482Z,22.20
2018-04-12T16:53:29.987Z,22.00
2018-04-12T16:55:57.741Z,22.00
2018-04-12T16:58:25.350Z,21.90
2018-04-12T17:00:52.911Z,21.90
2018-04-12T17:03:20.464Z,21.80
2018-04-12T17:05:48.027Z,21.80
2018-04-12T17:08:15.554Z,21.70
2018-04-12T17:10:43.178Z,21.70
2018-04-12T17:13:10.722Z,21.60
2018-04-12T17:15:38.268Z,21.60
2018-04-12T17:18:05.844Z,21.40
2018-04-12T17:20:34.150Z,21.20
2018-04-12T17:23:02.443Z,21.20
2018-04-12T17:25:31.006Z,21.10
2018-04-12T17:27:58.542Z,21.10
2018-04-12T17:30:26.080Z,21.00
2018-04-12T17:32:53.634Z,20.90
2018-04-12T17:35:21.222Z,20.90
2018-04-12T17:37:48.748Z,20.80
2018-04-12T17:40:16.282Z,20.70
2018-04-12T17:42:43.803Z,20.70
2018-04-12T17:45:11.354Z,20.60
2018-04-12T17:47:38.903Z,20.50
2018-04-12T17:50:06.481Z,20.50
2018-04-12T17:52:34.062Z,20.40
2018-04-12T17:55:02.379Z,20.20
2018-04-12T17:57:29.922Z,20.20
2018-04-12T17:59:57.456Z,20.10
2018-04-12T18:02:25.113Z,20.10
2018-04-12T18:04:52.662Z,20.00
2018-04-12T18:07:20.191Z,20.00
2018-04-12T18:09:47.735Z,19.90
2018-04-12T18:12:15.278Z,19.90
2018-04-12T18:14:42.877Z,19.80
2018-04-12T18:17:11.219Z,19.70
2018-04-12T18:19:38.832Z,19.70
2018-04-12T18:22:06.376Z,19.70
2018-04-12T18:24:34.110Z,19.70
2018-04-12T18:27:01.758Z,19.70
2018-04-12T18:29:29.305Z,19.60
2018-04-12T18:31:56.873Z,19.60
2018-04-12T18:34:24.461Z,19.60
2018-04-12T18:36:52.773Z,19.50
2018-04-12T18:39:20.296Z,19.40
2018-04-12T18:41:47.870Z,19.40
2018-04-12T18:44:15.482Z,19.40
2018-04-12T18:46:43.052Z,19.40
2018-04-12T18:49:10.675Z,19.40
2018-04-12T18:51:39.066Z,19.30
2018-04-12T18:54:07.327Z,19.30
2018-04-12T18:56:34.865Z,19.20
2018-04-12T18:59:02.394Z,19.20
2018-04-12T19:01:29.940Z,19.20
2018-04-12T19:03:57.516Z,19.30
2018-04-12T19:06:25.157Z,19.20
2018-04-12T19:08:52.697Z,19.20
2018-04-12T19:11:20.226Z,19.20
2018-04-12T19:13:47.750Z,19.20
2018-04-12T19:16:16.064Z,19.10
2018-04-12T19:18:43.585Z,19.10
2018-04-12T19:21:11.140Z,19.20
2018-04-12T19:23:38.838Z,19.10
2018-04-12T19:26:07.172Z,19.10
2018-04-12T19:28:34.702Z,19.00
2018-04-12T19:31:02.229Z,19.00
2018-04-12T19:33:29.770Z,19.00
2018-04-12T19:35:57.313Z,19.00
2018-04-12T19:38:24.878Z,19.00
2018-04-12T19:40:52.407Z,19.00
2018-04-12T19:43:19.958Z,18.90
2018-04-12T19:45:47.530Z,18.90
2018-04-12T19:48:15.072Z,18.90
2018-04-12T19:50:42.587Z,18.80
2018-04-12T19:53:10.151Z,18.80
2018-04-12T19:55:37.683Z,18.80
2018-04-12T19:58:05.246Z,18.80
2018-04-12T20:00:32.795Z,18.80
2018-04-12T20:03:00.382Z,18.70
2018-04-12T20:05:27.910Z,18.80
2018-04-12T20:07:56.291Z,18.70
2018-04-12T20:10:24.688Z,18.60
2018-04-12T20:12:52.223Z,18.60
2018-04-12T20:15:19.827Z,18.60
2018-04-12T20:17:47.385Z,18.50
2018-04-12T20:20:14.923Z,18.50
2018-04-12T20:22:43.319Z,18.40
2018-04-12T20:25:10.858Z,18.40
2018-04-12T20:27:39.312Z,18.40
2018-04-12T20:30:06.898Z,18.40
2018-04-12T20:32:35.248Z,18.20
2018-04-12T20:35:02.795Z,18.20
2018-04-12T20:37:30.313Z,18.20
2018-04-12T20:39:57.884Z,18.20
2018-04-12T20:42:25.423Z,18.20
2018-04-12T20:44:52.954Z,18.10
2018-04-12T20:47:20.468Z,18.00
2018-04-12T20:49:48.780Z,18.00
2018-04-12T20:52:16.306Z,18.00
2018-04-12T20:54:44.185Z,18.00
2018-04-12T20:57:11.816Z,17.90
2018-04-12T20:59:39.371Z,17.90
2018-04-12T21:02:06.904Z,17.80
2018-04-12T21:04:34.449Z,17.80
2018-04-12T21:07:01.989Z,17.80
2018-04-12T21:09:29.542Z,17.80
2018-04-12T21:11:57.066Z,17.70
2018-04-12T21:14:24.665Z,17.70
2018-04-12T21:16:52.158Z,17.60
2018-04-12T21:19:19.946Z,17.60
2018-04-12T21:21:47.471Z,17.60
2018-04-12T21:24:15.015Z,17.60
2018-04-12T21:26:42.560Z,17.50
2018-04-12T21:29:10.131Z,17.50
2018-04-12T21:31:37.695Z,17.40
2018-04-12T21:34:06.028Z,17.30
2018-04-12T21:36:33.555Z,17.30
2018-04-12T21:39:01.078Z,17.30
2018-04-12T21:41:28.617Z,17.30
2018-04-12T21:43:56.138Z,17.30
2018-04-12T21:46:24.482Z,17.20
2018-04-12T21:48:52.013Z,17.20
2018-04-12T21:51:20.350Z,17.20
2018-04-12T21:53:47.890Z,17.20
2018-04-12T21:56:15.428Z,17.20
2018-04-12T21:58:43.090Z,17.10
2018-04-12T22:01:10.618Z,17.10
2018-04-12T22:03:38.160Z,17.10
2018-04-12T22:06:05.702Z,17.10
2018-04-12T22:08:33.222Z,17.00
2018-04-12T22:11:01.632Z,17.00
2018-04-12T22:13:29.159Z,16.90
2018-04-12T22:15:57.818Z,16.90
2018-04-12T22:18:25.357Z,16.90
2018-04-12T22:20:52.907Z,16.90
2018-04-12T22:23:20.437Z,16.90
2018-04-12T22:25:48.743Z,16.80
2018-04-12T22:28:16.254Z,16.80
2018-04-12T22:30:43.790Z,16.80
2018-04-12T22:33:11.442Z,16.80
2018-04-12T22:35:38.988Z,16.80
2018-04-12T22:38:06.516Z,16.80
2018-04-12T22:40:34.825Z,16.80
2018-04-12T22:43:02.372Z,16.80
2018-04-12T22:45:29.919Z,16.80
2018-04-12T22:47:57.446Z,16.70
2018-04-12T22:50:24.983Z,16.70
2018-04-12T22:52:52.523Z,16.70
2018-04-12T22:55:20.051Z,16.70
2018-04-12T22:57:48.451Z,16.80
2018-04-12T23:00:18.766Z,16.80
2018-04-12T23:02:46.306Z,16.80
2018-04-12T23:05:13.822Z,16.90
2018-04-12T23:07:41.369Z,16.90
2018-04-12T23:10:08.983Z,16.90
2018-04-12T23:12:37.713Z,16.90
2018-04-12T23:15:05.230Z,16.90
2018-04-12T23:17:32.766Z,16.90
2018-04-12T23:20:00.455Z,16.90
2018-04-12T23:22:28.071Z,16.90
2018-04-12T23:24:56.378Z,16.90
2018-04-12T23:27:23.922Z,16.90
2018-04-12T23:29:51.747Z,16.90
2018-04-12T23:32:19.402Z,16.80
2018-04-12T23:34:46.939Z,16.80
2018-04-12T23:37:14.474Z,16.90
2018-04-12T23:39:41.985Z,16.80
2018-04-12T23:42:10.302Z,16.80
2018-04-12T23:44:38.878Z,16.80
2018-04-12T23:47:06.429Z,16.80
2018-04-12T23:49:34.177Z,16.80
2018-04-12T23:52:01.857Z,16.80
2018-04-12T23:54:30.175Z,16.80
2018-04-12T23:56:57.729Z,16.80
2018-04-12T23:59:25.461Z,16.80
